sensor_id;sensor_type;location;lat;lon;timestamp;P1;durP1;ratioP1;P2;durP2;ratioP2
45382;SDS011;42455;51.660;5.824;2023-12-28T00:04:26;3.0;;;2.0;;
45382;SDS011;42455;51.660;5.824;2023-12-28T00:09:32;3.0;;;2.0;;
45382;SDS011;42455;51.660;5.824;2023-12-28T00:14:38;2.0;;;2.0;;
45382;SDS011;42455;51.660;5.824;2023-12-28T00:19:44;2.0;;;2.0;;
45382;SDS011;42455;51.660;5.824;2023-12-28T00:24:50;2.0;;;2.0;;
45382;SDS011;42455;51.660;5.824;2023-12-28T00:29:57;3.0;;;2.0;;
45382;SDS011;42455;51.660;5.824;2023-12-28T00:35:02;2.0;;;2.0;;
45382;SDS011;42455;51.660;5.824;2023-12-28T00:40:08;3.0;;;2.0;;
45382;SDS011;42455;51.660;5.824;2023-12-28T00:45:14;3.0;;;2.0;;
45382;SDS011;42455;51.660;5.824;2023-12-28T00:50:21;3.0;;;2.0;;
45382;SDS011;42455;51.660;5.824;2023-12-28T00:55:27;3.0;;;2.0;;
45382;SDS011;42455;51.660;5.824;2023-12-28T01:00:33;2.0;;;2.0;;
45382;SDS011;42455;51.660;5.824;2023-12-28T01:05:38;2.0;;;2.0;;
45382;SDS011;42455;51.660;5.824;2023-12-28T01:10:44;3.0;;;2.0;;
45382;SDS011;42455;51.660;5.824;2023-12-28T01:15:51;2.5;;;2.0;;
45382;SDS011;42455;51.660;5.824;2023-12-28T01:20:57;3.0;;;2.0;;
45382;SDS011;42455;51.660;5.824;2023-12-28T01:26:03;3.0;;;2.0;;
45382;SDS011;42455;51.660;5.824;2023-12-28T01:31:09;2.0;;;2.0;;
45382;SDS011;42455;51.660;5.824;2023-12-28T01:36:15;3.0;;;2.0;;
45382;SDS011;42455;51.660;5.824;2023-12-28T01:41:22;3.0;;;2.0;;
45382;SDS011;42455;51.660;5.824;2023-12-28T01:46:28;3.0;;;2.0;;
45382;SDS011;42455;51.660;5.824;2023-12-28T01:51:34;4.0;;;2.0;;
45382;SDS011;42455;51.660;5.824;2023-12-28T01:56:40;4.0;;;2.0;;
45382;SDS011;42455;51.660;5.824;2023-12-28T02:01:46;3.5;;;2.0;;
45382;SDS011;42455;51.660;5.824;2023-12-28T02:06:53;2.0;;;2.0;;
45382;SDS011;42455;51.660;5.824;2023-12-28T02:11:59;3.0;;;2.0;;
45382;SDS011;42455;51.660;5.824;2023-12-28T02:17:36;4.0;;;2.0;;
45382;SDS011;42455;51.660;5.824;2023-12-28T02:22:12;3.0;;;2.0;;
45382;SDS011;42455;51.660;5.824;2023-12-28T02:27:18;3.0;;;2.0;;
45382;SDS011;42455;51.660;5.824;2023-12-28T02:32:56;3.0;;;2.0;;
45382;SDS011;42455;51.660;5.824;2023-12-28T02:37:30;4.0;;;2.0;;
45382;SDS011;42455;51.660;5.824;2023-12-28T02:42:36;3.0;;;2.0;;
45382;SDS011;42455;51.660;5.824;2023-12-28T02:47:42;4.0;;;2.0;;
45382;SDS011;42455;51.660;5.824;2023-12-28T02:52:49;2.0;;;2.0;;
45382;SDS011;42455;51.660;5.824;2023-12-28T02:57:55;4.0;;;2.0;;
45382;SDS011;42455;51.660;5.824;2023-12-28T03:03:01;3.0;;;2.0;;
45382;SDS011;42455;51.660;5.824;2023-12-28T03:08:07;2.0;;;2.0;;
45382;SDS011;42455;51.660;5.824;2023-12-28T03:13:14;4.0;;;2.0;;
45382;SDS011;42455;51.660;5.824;2023-12-28T03:18:20;3.0;;;2.0;;
45382;SDS011;42455;51.660;5.824;2023-12-28T03:23:26;3.0;;;2.0;;
45382;SDS011;42455;51.660;5.824;2023-12-28T03:28:32;3.0;;;2.0;;
45382;SDS011;42455;51.660;5.824;2023-12-28T03:33:38;4.0;;;2.0;;
45382;SDS011;42455;51.660;5.824;2023-12-28T03:38:44;4.0;;;2.0;;
45382;SDS011;42455;51.660;5.824;2023-12-28T03:43:51;4.0;;;2.0;;
45382;SDS011;42455;51.660;5.824;2023-12-28T03:48:57;4.0;;;2.0;;
45382;SDS011;42455;51.660;5.824;2023-12-28T03:54:03;5.0;;;2.0;;
45382;SDS011;42455;51.660;5.824;2023-12-28T03:59:10;5.0;;;2.0;;
45382;SDS011;42455;51.660;5.824;2023-12-28T04:04:16;4.0;;;2.0;;
45382;SDS011;42455;51.660;5.824;2023-12-28T04:09:22;4.0;;;2.0;;
45382;SDS011;42455;51.660;5.824;2023-12-28T04:14:28;3.0;;;2.0;;
45382;SDS011;42455;51.660;5.824;2023-12-28T04:19:34;4.0;;;2.0;;
45382;SDS011;42455;51.660;5.824;2023-12-28T04:24:40;5.0;;;2.0;;
45382;SDS011;42455;51.660;5.824;2023-12-28T04:29:47;4.0;;;2.0;;
45382;SDS011;42455;51.660;5.824;2023-12-28T04:34:53;5.0;;;2.0;;
45382;SDS011;42455;51.660;5.824;2023-12-28T04:39:59;5.0;;;2.0;;
45382;SDS011;42455;51.660;5.824;2023-12-28T04:45:06;6.0;;;2.0;;
45382;SDS011;42455;51.660;5.824;2023-12-28T04:50:11;5.0;;;2.0;;
45382;SDS011;42455;51.660;5.824;2023-12-28T04:55:18;4.0;;;2.0;;
45382;SDS011;42455;51.660;5.824;2023-12-28T05:00:24;6.0;;;2.0;;
45382;SDS011;42455;51.660;5.824;2023-12-28T05:05:30;4.0;;;2.0;;
45382;SDS011;42455;51.660;5.824;2023-12-28T05:10:36;4.0;;;2.0;;
45382;SDS011;42455;51.660;5.824;2023-12-28T05:15:43;5.0;;;2.0;;
45382;SDS011;42455;51.660;5.824;2023-12-28T05:20:49;5.0;;;2.0;;
45382;SDS011;42455;51.660;5.824;2023-12-28T05:25:55;6.0;;;2.0;;
45382;SDS011;42455;51.660;5.824;2023-12-28T05:31:01;8.0;;;2.0;;
45382;SDS011;42455;51.660;5.824;2023-12-28T05:36:07;8.0;;;2.0;;
45382;SDS011;42455;51.660;5.824;2023-12-28T05:41:13;8.0;;;2.0;;
45382;SDS011;42455;51.660;5.824;2023-12-28T05:46:20;8.0;;;2.0;;
45382;SDS011;42455;51.660;5.824;2023-12-28T05:51:26;6.0;;;2.0;;
45382;SDS011;42455;51.660;5.824;2023-12-28T05:56:32;5.0;;;2.0;;
45382;SDS011;42455;51.660;5.824;2023-12-28T06:01:41;8.0;;;2.0;;
45382;SDS011;42455;51.660;5.824;2023-12-28T06:06:45;8.0;;;2.0;;
45382;SDS011;42455;51.660;5.824;2023-12-28T06:11:51;8.0;;;2.0;;
45382;SDS011;42455;51.660;5.824;2023-12-28T06:16:57;9.0;;;2.0;;
45382;SDS011;42455;51.660;5.824;2023-12-28T06:22:03;7.0;;;2.0;;
45382;SDS011;42455;51.660;5.824;2023-12-28T06:27:09;7.0;;;2.0;;
45382;SDS011;42455;51.660;5.824;2023-12-28T06:37:22;8.0;;;2.0;;
45382;SDS011;42455;51.660;5.824;2023-12-28T06:42:27;7.0;;;2.0;;
45382;SDS011;42455;51.660;5.824;2023-12-28T06:47:33;8.0;;;2.0;;
45382;SDS011;42455;51.660;5.824;2023-12-28T06:52:39;5.0;;;2.0;;
45382;SDS011;42455;51.660;5.824;2023-12-28T06:57:46;8.0;;;2.0;;
45382;SDS011;42455;51.660;5.824;2023-12-28T07:02:52;7.0;;;2.0;;
45382;SDS011;42455;51.660;5.824;2023-12-28T07:07:58;10.0;;;2.0;;
45382;SDS011;42455;51.660;5.824;2023-12-28T07:13:04;9.0;;;2.0;;
45382;SDS011;42455;51.660;5.824;2023-12-28T07:18:10;9.0;;;2.0;;
45382;SDS011;42455;51.660;5.824;2023-12-28T07:23:17;9.0;;;2.0;;
45382;SDS011;42455;51.660;5.824;2023-12-28T07:28:23;10.0;;;2.0;;
45382;SDS011;42455;51.660;5.824;2023-12-28T07:33:29;10.0;;;2.0;;
45382;SDS011;42455;51.660;5.824;2023-12-28T07:38:35;9.5;;;2.0;;
45382;SDS011;42455;51.660;5.824;2023-12-28T07:43:42;9.0;;;2.0;;
45382;SDS011;42455;51.660;5.824;2023-12-28T07:48:48;10.0;;;2.0;;
45382;SDS011;42455;51.660;5.824;2023-12-28T07:53:54;8.0;;;2.0;;
45382;SDS011;42455;51.660;5.824;2023-12-28T07:59:00;9.0;;;2.0;;
45382;SDS011;42455;51.660;5.824;2023-12-28T08:04:06;11.0;;;3.0;;
45382;SDS011;42455;51.660;5.824;2023-12-28T08:09:13;9.0;;;2.0;;
45382;SDS011;42455;51.660;5.824;2023-12-28T08:14:19;11.0;;;3.0;;
45382;SDS011;42455;51.660;5.824;2023-12-28T08:19:25;10.5;;;3.0;;
45382;SDS011;42455;51.660;5.824;2023-12-28T08:24:31;9.0;;;2.0;;
45382;SDS011;42455;51.660;5.824;2023-12-28T08:29:37;10.0;;;2.0;;
45382;SDS011;42455;51.660;5.824;2023-12-28T08:34:44;9.0;;;3.0;;
45382;SDS011;42455;51.660;5.824;2023-12-28T08:39:50;10.0;;;3.0;;
45382;SDS011;42455;51.660;5.824;2023-12-28T08:44:56;13.0;;;3.0;;
45382;SDS011;42455;51.660;5.824;2023-12-28T08:50:02;10.0;;;3.0;;
45382;SDS011;42455;51.660;5.824;2023-12-28T08:55:09;9.0;;;2.0;;
45382;SDS011;42455;51.660;5.824;2023-12-28T09:00:15;8.0;;;2.0;;
45382;SDS011;42455;51.660;5.824;2023-12-28T09:05:22;11.0;;;2.0;;
45382;SDS011;42455;51.660;5.824;2023-12-28T09:10:27;12.0;;;3.0;;
45382;SDS011;42455;51.660;5.824;2023-12-28T09:15:33;10.0;;;3.0;;
45382;SDS011;42455;51.660;5.824;2023-12-28T09:20:40;11.0;;;2.0;;
45382;SDS011;42455;51.660;5.824;2023-12-28T09:25:46;10.0;;;3.0;;
45382;SDS011;42455;51.660;5.824;2023-12-28T09:30:52;10.0;;;2.0;;
45382;SDS011;42455;51.660;5.824;2023-12-28T09:35:58;10.0;;;2.0;;
45382;SDS011;42455;51.660;5.824;2023-12-28T09:41:07;11.0;;;3.0;;
45382;SDS011;42455;51.660;5.824;2023-12-28T09:46:11;9.0;;;2.0;;
45382;SDS011;42455;51.660;5.824;2023-12-28T09:51:17;7.5;;;2.0;;
45382;SDS011;42455;51.660;5.824;2023-12-28T09:56:23;12.0;;;3.0;;
45382;SDS011;42455;51.660;5.824;2023-12-28T10:01:29;12.0;;;3.0;;
45382;SDS011;42455;51.660;5.824;2023-12-28T10:06:35;10.0;;;2.0;;
45382;SDS011;42455;51.660;5.824;2023-12-28T10:11:42;12.0;;;3.0;;
45382;SDS011;42455;51.660;5.824;2023-12-28T10:16:48;11.0;;;3.0;;
45382;SDS011;42455;51.660;5.824;2023-12-28T10:21:54;9.0;;;2.0;;
45382;SDS011;42455;51.660;5.824;2023-12-28T10:27:01;10.0;;;3.0;;
45382;SDS011;42455;51.660;5.824;2023-12-28T10:32:07;10.0;;;2.0;;
45382;SDS011;42455;51.660;5.824;2023-12-28T10:37:13;9.0;;;2.5;;
45382;SDS011;42455;51.660;5.824;2023-12-28T10:42:28;10.5;;;2.0;;
45382;SDS011;42455;51.660;5.824;2023-12-28T10:47:25;9.0;;;2.0;;
45382;SDS011;42455;51.660;5.824;2023-12-28T10:52:32;9.0;;;2.0;;
45382;SDS011;42455;51.660;5.824;2023-12-28T11:00:32;8.0;;;2.0;;
45382;SDS011;42455;51.660;5.824;2023-12-28T11:05:02;10.0;;;3.0;;
45382;SDS011;42455;51.660;5.824;2023-12-28T11:07:50;8.0;;;2.0;;
45382;SDS011;42455;51.660;5.824;2023-12-28T11:12:56;9.0;;;3.0;;
45382;SDS011;42455;51.660;5.824;2023-12-28T11:18:02;10.0;;;3.0;;
45382;SDS011;42455;51.660;5.824;2023-12-28T11:23:09;10.0;;;2.0;;
45382;SDS011;42455;51.660;5.824;2023-12-28T11:28:15;10.0;;;3.0;;
45382;SDS011;42455;51.660;5.824;2023-12-28T11:33:21;10.0;;;2.0;;
45382;SDS011;42455;51.660;5.824;2023-12-28T11:38:27;12.0;;;3.0;;
45382;SDS011;42455;51.660;5.824;2023-12-28T11:43:34;9.5;;;2.0;;
45382;SDS011;42455;51.660;5.824;2023-12-28T11:48:40;11.0;;;2.0;;
45382;SDS011;42455;51.660;5.824;2023-12-28T11:53:46;11.0;;;3.0;;
45382;SDS011;42455;51.660;5.824;2023-12-28T11:58:52;8.0;;;3.0;;
45382;SDS011;42455;51.660;5.824;2023-12-28T12:03:58;10.0;;;3.0;;
45382;SDS011;42455;51.660;5.824;2023-12-28T12:09:05;11.0;;;2.0;;
45382;SDS011;42455;51.660;5.824;2023-12-28T12:14:10;11.0;;;2.0;;
45382;SDS011;42455;51.660;5.824;2023-12-28T12:19:16;10.5;;;3.0;;
45382;SDS011;42455;51.660;5.824;2023-12-28T12:24:23;9.5;;;2.0;;
45382;SDS011;42455;51.660;5.824;2023-12-28T12:29:29;13.0;;;3.0;;
45382;SDS011;42455;51.660;5.824;2023-12-28T12:34:35;12.0;;;3.0;;
45382;SDS011;42455;51.660;5.824;2023-12-28T12:39:41;13.0;;;3.0;;
45382;SDS011;42455;51.660;5.824;2023-12-28T12:44:47;10.5;;;3.0;;
45382;SDS011;42455;51.660;5.824;2023-12-28T12:49:55;13.0;;;3.0;;
45382;SDS011;42455;51.660;5.824;2023-12-28T12:55:00;11.0;;;3.0;;
45382;SDS011;42455;51.660;5.824;2023-12-28T13:00:06;10.0;;;3.0;;
45382;SDS011;42455;51.660;5.824;2023-12-28T13:05:12;12.5;;;3.0;;
45382;SDS011;42455;51.660;5.824;2023-12-28T13:10:18;10.0;;;2.0;;
45382;SDS011;42455;51.660;5.824;2023-12-28T13:15:24;12.0;;;3.0;;
45382;SDS011;42455;51.660;5.824;2023-12-28T13:20:31;10.0;;;3.0;;
45382;SDS011;42455;51.660;5.824;2023-12-28T13:25:37;13.0;;;3.0;;
45382;SDS011;42455;51.660;5.824;2023-12-28T13:30:43;11.0;;;3.0;;
45382;SDS011;42455;51.660;5.824;2023-12-28T13:35:49;10.0;;;3.0;;
45382;SDS011;42455;51.660;5.824;2023-12-28T13:40:56;12.0;;;3.0;;
45382;SDS011;42455;51.660;5.824;2023-12-28T13:46:02;12.0;;;3.0;;
45382;SDS011;42455;51.660;5.824;2023-12-28T13:51:08;10.0;;;3.0;;
45382;SDS011;42455;51.660;5.824;2023-12-28T13:56:14;9.0;;;3.0;;
45382;SDS011;42455;51.660;5.824;2023-12-28T14:01:20;12.0;;;3.0;;
45382;SDS011;42455;51.660;5.824;2023-12-28T14:06:27;13.5;;;3.0;;
45382;SDS011;42455;51.660;5.824;2023-12-28T14:11:33;13.0;;;3.0;;
45382;SDS011;42455;51.660;5.824;2023-12-28T14:16:39;10.0;;;3.0;;
45382;SDS011;42455;51.660;5.824;2023-12-28T14:21:45;11.0;;;3.0;;
45382;SDS011;42455;51.660;5.824;2023-12-28T14:26:52;12.0;;;3.0;;
45382;SDS011;42455;51.660;5.824;2023-12-28T14:31:58;12.0;;;3.0;;
45382;SDS011;42455;51.660;5.824;2023-12-28T14:37:04;9.0;;;3.0;;
45382;SDS011;42455;51.660;5.824;2023-12-28T14:42:10;9.0;;;3.0;;
45382;SDS011;42455;51.660;5.824;2023-12-28T14:47:16;10.0;;;3.0;;
45382;SDS011;42455;51.660;5.824;2023-12-28T14:52:23;10.0;;;3.0;;
45382;SDS011;42455;51.660;5.824;2023-12-28T14:57:29;9.5;;;2.0;;
45382;SDS011;42455;51.660;5.824;2023-12-28T15:02:35;11.0;;;3.0;;
45382;SDS011;42455;51.660;5.824;2023-12-28T15:07:41;10.5;;;3.0;;
45382;SDS011;42455;51.660;5.824;2023-12-28T15:12:47;11.0;;;3.0;;
45382;SDS011;42455;51.660;5.824;2023-12-28T15:17:54;12.0;;;3.0;;
45382;SDS011;42455;51.660;5.824;2023-12-28T15:23:00;12.0;;;3.0;;
45382;SDS011;42455;51.660;5.824;2023-12-28T15:28:06;11.0;;;3.0;;
45382;SDS011;42455;51.660;5.824;2023-12-28T15:33:12;12.0;;;2.5;;
45382;SDS011;42455;51.660;5.824;2023-12-28T15:38:18;9.5;;;2.0;;
45382;SDS011;42455;51.660;5.824;2023-12-28T15:43:25;10.0;;;2.0;;
45382;SDS011;42455;51.660;5.824;2023-12-28T15:48:31;11.0;;;2.0;;
45382;SDS011;42455;51.660;5.824;2023-12-28T15:53:37;8.0;;;2.0;;
45382;SDS011;42455;51.660;5.824;2023-12-28T15:58:43;10.0;;;3.0;;
45382;SDS011;42455;51.660;5.824;2023-12-28T16:03:50;10.0;;;2.0;;
45382;SDS011;42455;51.660;5.824;2023-12-28T16:08:56;9.0;;;2.0;;
45382;SDS011;42455;51.660;5.824;2023-12-28T16:14:02;8.0;;;2.0;;
45382;SDS011;42455;51.660;5.824;2023-12-28T16:19:08;12.5;;;3.0;;
45382;SDS011;42455;51.660;5.824;2023-12-28T16:24:14;9.0;;;2.0;;
45382;SDS011;42455;51.660;5.824;2023-12-28T16:29:21;10.0;;;3.0;;
45382;SDS011;42455;51.660;5.824;2023-12-28T16:34:27;11.0;;;3.0;;
45382;SDS011;42455;51.660;5.824;2023-12-28T16:39:33;9.5;;;2.0;;
45382;SDS011;42455;51.660;5.824;2023-12-28T16:44:40;9.0;;;2.0;;
45382;SDS011;42455;51.660;5.824;2023-12-28T16:49:46;10.0;;;2.0;;
45382;SDS011;42455;51.660;5.824;2023-12-28T16:54:52;9.0;;;2.0;;
45382;SDS011;42455;51.660;5.824;2023-12-28T16:59:58;10.5;;;3.0;;
45382;SDS011;42455;51.660;5.824;2023-12-28T17:05:04;8.0;;;3.0;;
45382;SDS011;42455;51.660;5.824;2023-12-28T17:10:10;8.5;;;2.0;;
45382;SDS011;42455;51.660;5.824;2023-12-28T17:15:17;9.0;;;2.0;;
45382;SDS011;42455;51.660;5.824;2023-12-28T17:20:23;8.5;;;2.0;;
45382;SDS011;42455;51.660;5.824;2023-12-28T17:26:04;8.0;;;2.0;;
45382;SDS011;42455;51.660;5.824;2023-12-28T17:30:35;9.5;;;3.0;;
45382;SDS011;42455;51.660;5.824;2023-12-28T17:35:42;7.0;;;2.0;;
45382;SDS011;42455;51.660;5.824;2023-12-28T17:40:48;8.5;;;2.0;;
45382;SDS011;42455;51.660;5.824;2023-12-28T17:46:20;8.0;;;2.0;;
45382;SDS011;42455;51.660;5.824;2023-12-28T17:50:59;9.0;;;2.0;;
45382;SDS011;42455;51.660;5.824;2023-12-28T17:56:05;8.0;;;2.0;;
45382;SDS011;42455;51.660;5.824;2023-12-28T18:01:12;10.0;;;2.0;;
45382;SDS011;42455;51.660;5.824;2023-12-28T18:06:18;8.0;;;2.0;;
45382;SDS011;42455;51.660;5.824;2023-12-28T18:11:23;8.0;;;2.0;;
45382;SDS011;42455;51.660;5.824;2023-12-28T18:16:29;8.0;;;2.0;;
45382;SDS011;42455;51.660;5.824;2023-12-28T18:21:35;7.0;;;2.0;;
45382;SDS011;42455;51.660;5.824;2023-12-28T18:31:48;7.0;;;2.0;;
45382;SDS011;42455;51.660;5.824;2023-12-28T18:36:54;6.0;;;2.0;;
45382;SDS011;42455;51.660;5.824;2023-12-28T18:42:00;8.0;;;2.0;;
45382;SDS011;42455;51.660;5.824;2023-12-28T18:47:07;8.0;;;2.0;;
45382;SDS011;42455;51.660;5.824;2023-12-28T18:52:13;7.0;;;2.0;;
45382;SDS011;42455;51.660;5.824;2023-12-28T18:57:19;6.0;;;2.0;;
45382;SDS011;42455;51.660;5.824;2023-12-28T19:02:25;8.0;;;2.0;;
45382;SDS011;42455;51.660;5.824;2023-12-28T19:07:31;7.0;;;2.0;;
45382;SDS011;42455;51.660;5.824;2023-12-28T19:12:37;7.0;;;2.0;;
45382;SDS011;42455;51.660;5.824;2023-12-28T19:17:44;7.0;;;2.0;;
45382;SDS011;42455;51.660;5.824;2023-12-28T19:22:50;7.0;;;2.0;;
45382;SDS011;42455;51.660;5.824;2023-12-28T19:27:56;6.0;;;2.0;;
45382;SDS011;42455;51.660;5.824;2023-12-28T19:33:03;7.0;;;2.0;;
45382;SDS011;42455;51.660;5.824;2023-12-28T19:38:09;8.0;;;2.0;;
45382;SDS011;42455;51.660;5.824;2023-12-28T19:43:15;5.0;;;2.0;;
45382;SDS011;42455;51.660;5.824;2023-12-28T19:48:21;6.0;;;2.0;;
45382;SDS011;42455;51.660;5.824;2023-12-28T19:53:27;9.5;;;2.0;;
45382;SDS011;42455;51.660;5.824;2023-12-28T19:58:33;6.0;;;2.0;;
45382;SDS011;42455;51.660;5.824;2023-12-28T20:03:40;7.0;;;2.0;;
45382;SDS011;42455;51.660;5.824;2023-12-28T20:08:46;7.0;;;2.0;;
45382;SDS011;42455;51.660;5.824;2023-12-28T20:13:52;7.0;;;2.0;;
45382;SDS011;42455;51.660;5.824;2023-12-28T20:18:58;7.0;;;2.0;;
45382;SDS011;42455;51.660;5.824;2023-12-28T20:24:04;8.0;;;2.0;;
45382;SDS011;42455;51.660;5.824;2023-12-28T20:29:11;8.0;;;2.0;;
45382;SDS011;42455;51.660;5.824;2023-12-28T20:34:17;5.0;;;2.0;;
45382;SDS011;42455;51.660;5.824;2023-12-28T20:39:23;6.0;;;2.0;;
45382;SDS011;42455;51.660;5.824;2023-12-28T20:44:30;5.0;;;2.0;;
45382;SDS011;42455;51.660;5.824;2023-12-28T20:49:36;7.0;;;2.0;;
45382;SDS011;42455;51.660;5.824;2023-12-28T20:54:42;5.0;;;2.0;;
45382;SDS011;42455;51.660;5.824;2023-12-28T20:59:48;7.0;;;2.0;;
45382;SDS011;42455;51.660;5.824;2023-12-28T21:04:54;6.0;;;2.0;;
45382;SDS011;42455;51.660;5.824;2023-12-28T21:10:00;5.0;;;2.0;;
45382;SDS011;42455;51.660;5.824;2023-12-28T21:15:07;5.0;;;2.0;;
45382;SDS011;42455;51.660;5.824;2023-12-28T21:20:13;7.0;;;2.0;;
45382;SDS011;42455;51.660;5.824;2023-12-28T21:25:19;6.0;;;2.0;;
45382;SDS011;42455;51.660;5.824;2023-12-28T21:30:25;6.0;;;2.0;;
45382;SDS011;42455;51.660;5.824;2023-12-28T21:35:32;8.0;;;2.0;;
45382;SDS011;42455;51.660;5.824;2023-12-28T21:40:38;9.0;;;2.0;;
45382;SDS011;42455;51.660;5.824;2023-12-28T21:45:44;6.0;;;2.0;;
45382;SDS011;42455;51.660;5.824;2023-12-28T21:50:50;5.0;;;2.0;;
45382;SDS011;42455;51.660;5.824;2023-12-28T21:55:56;7.0;;;2.0;;
45382;SDS011;42455;51.660;5.824;2023-12-28T22:01:02;7.0;;;2.0;;
45382;SDS011;42455;51.660;5.824;2023-12-28T22:06:09;7.0;;;2.0;;
45382;SDS011;42455;51.660;5.824;2023-12-28T22:11:15;7.0;;;2.0;;
45382;SDS011;42455;51.660;5.824;2023-12-28T22:16:21;7.0;;;2.0;;
45382;SDS011;42455;51.660;5.824;2023-12-28T22:21:27;8.0;;;2.0;;
45382;SDS011;42455;51.660;5.824;2023-12-28T22:26:33;7.5;;;2.0;;
45382;SDS011;42455;51.660;5.824;2023-12-28T22:31:40;7.0;;;2.0;;
45382;SDS011;42455;51.660;5.824;2023-12-28T22:36:46;6.0;;;2.0;;
45382;SDS011;42455;51.660;5.824;2023-12-28T22:41:52;6.0;;;2.0;;
45382;SDS011;42455;51.660;5.824;2023-12-28T22:46:59;7.0;;;2.0;;
45382;SDS011;42455;51.660;5.824;2023-12-28T22:52:05;7.0;;;2.0;;
45382;SDS011;42455;51.660;5.824;2023-12-28T22:57:11;7.0;;;2.0;;
45382;SDS011;42455;51.660;5.824;2023-12-28T23:02:17;5.0;;;2.0;;
45382;SDS011;42455;51.660;5.824;2023-12-28T23:07:23;7.0;;;2.0;;
45382;SDS011;42455;51.660;5.824;2023-12-28T23:12:29;5.0;;;2.0;;
45382;SDS011;42455;51.660;5.824;2023-12-28T23:17:36;7.0;;;2.0;;
45382;SDS011;42455;51.660;5.824;2023-12-28T23:22:42;7.0;;;2.0;;
45382;SDS011;42455;51.660;5.824;2023-12-28T23:27:48;7.0;;;2.0;;
45382;SDS011;42455;51.660;5.824;2023-12-28T23:32:54;7.0;;;2.0;;
45382;SDS011;42455;51.660;5.824;2023-12-28T23:38:01;6.0;;;2.0;;
45382;SDS011;42455;51.660;5.824;2023-12-28T23:43:06;6.5;;;2.0;;
45382;SDS011;42455;51.660;5.824;2023-12-28T23:48:12;8.0;;;2.0;;
45382;SDS011;42455;51.660;5.824;2023-12-28T23:53:18;5.0;;;2.0;;
